sensor_id;sensor_type;location;lat;lon;timestamp;pressure;altitude;pressure_sealevel;temperature;humidity
73952;BME280;62304;47.662;18.324;2023-12-14T00:01:34;98976.59;;;5.06;100.00
73952;BME280;62304;47.662;18.324;2023-12-14T00:04:38;98971.47;;;4.82;100.00
73952;BME280;62304;47.662;18.324;2023-12-14T00:07:40;98982.16;;;4.87;100.00
73952;BME280;62304;47.662;18.324;2023-12-14T00:10:44;98978.59;;;4.64;100.00
73952;BME280;62304;47.662;18.324;2023-12-14T00:13:49;98983.88;;;4.95;100.00
73952;BME280;62304;47.662;18.324;2023-12-14T00:16:53;98981.47;;;4.94;100.00
73952;BME280;62304;47.662;18.324;2023-12-14T00:19:57;98988.66;;;4.98;100.00
73952;BME280;62304;47.662;18.324;2023-12-14T00:23:00;98988.16;;;5.15;100.00
73952;BME280;62304;47.662;18.324;2023-12-14T00:26:04;98986.19;;;4.93;100.00
73952;BME280;62304;47.662;18.324;2023-12-14T00:29:07;98986.87;;;5.09;100.00
73952;BME280;62304;47.662;18.324;2023-12-14T00:32:10;98987.28;;;5.11;100.00
73952;BME280;62304;47.662;18.324;2023-12-14T00:35:13;98995.66;;;5.18;100.00
73952;BME280;62304;47.662;18.324;2023-12-14T00:38:17;99003.03;;;5.14;100.00
73952;BME280;62304;47.662;18.324;2023-12-14T00:41:21;99014.59;;;5.01;100.00
73952;BME280;62304;47.662;18.324;2023-12-14T00:44:24;99024.84;;;5.04;100.00
73952;BME280;62304;47.662;18.324;2023-12-14T00:47:27;99021.28;;;5.03;100.00
73952;BME280;62304;47.662;18.324;2023-12-14T00:50:30;99020.28;;;5.11;100.00
73952;BME280;62304;47.662;18.324;2023-12-14T00:53:33;99021.66;;;5.24;100.00
73952;BME280;62304;47.662;18.324;2023-12-14T00:56:36;99030.88;;;5.35;100.00
73952;BME280;62304;47.662;18.324;2023-12-14T00:59:41;99033.81;;;5.23;100.00
73952;BME280;62304;47.662;18.324;2023-12-14T01:02:44;99040.72;;;5.36;100.00
73952;BME280;62304;47.662;18.324;2023-12-14T01:05:48;99047.97;;;5.25;100.00
73952;BME280;62304;47.662;18.324;2023-12-14T01:08:51;99051.06;;;5.20;100.00
73952;BME280;62304;47.662;18.324;2023-12-14T01:11:55;99061.84;;;5.10;100.00
73952;BME280;62304;47.662;18.324;2023-12-14T01:14:58;99062.78;;;5.17;100.00
73952;BME280;62304;47.662;18.324;2023-12-14T01:18:01;99065.22;;;5.22;100.00
73952;BME280;62304;47.662;18.324;2023-12-14T01:21:04;99071.87;;;5.21;100.00
73952;BME280;62304;47.662;18.324;2023-12-14T01:24:08;99062.72;;;5.14;100.00
73952;BME280;62304;47.662;18.324;2023-12-14T01:27:11;99067.69;;;5.08;100.00
73952;BME280;62304;47.662;18.324;2023-12-14T01:30:17;99066.00;;;4.81;100.00
73952;BME280;62304;47.662;18.324;2023-12-14T01:33:19;99074.62;;;4.61;100.00
73952;BME280;62304;47.662;18.324;2023-12-14T01:36:24;99083.72;;;4.65;100.00
73952;BME280;62304;47.662;18.324;2023-12-14T01:39:28;99071.94;;;4.64;100.00
73952;BME280;62304;47.662;18.324;2023-12-14T01:42:31;99078.81;;;4.55;100.00
73952;BME280;62304;47.662;18.324;2023-12-14T01:45:37;99068.78;;;4.62;100.00
73952;BME280;62304;47.662;18.324;2023-12-14T01:48:41;99076.84;;;4.74;100.00
73952;BME280;62304;47.662;18.324;2023-12-14T01:51:44;99079.25;;;4.76;100.00
73952;BME280;62304;47.662;18.324;2023-12-14T01:54:47;99070.06;;;4.68;100.00
73952;BME280;62304;47.662;18.324;2023-12-14T01:57:50;99070.66;;;4.58;100.00
73952;BME280;62304;47.662;18.324;2023-12-14T02:04:03;99061.78;;;4.65;100.00
73952;BME280;62304;47.662;18.324;2023-12-14T02:07:09;99064.16;;;4.66;100.00
73952;BME280;62304;47.662;18.324;2023-12-14T02:10:12;99066.69;;;4.75;100.00
73952;BME280;62304;47.662;18.324;2023-12-14T02:13:15;99066.28;;;4.95;100.00
73952;BME280;62304;47.662;18.324;2023-12-14T02:16:19;99071.78;;;4.95;100.00
73952;BME280;62304;47.662;18.324;2023-12-14T02:19:22;99054.00;;;4.89;100.00
73952;BME280;62304;47.662;18.324;2023-12-14T02:22:26;99060.78;;;4.95;100.00
73952;BME280;62304;47.662;18.324;2023-12-14T02:25:29;99056.72;;;5.08;100.00
73952;BME280;62304;47.662;18.324;2023-12-14T02:28:32;99058.81;;;5.15;100.00
73952;BME280;62304;47.662;18.324;2023-12-14T02:31:35;99059.59;;;5.15;100.00
73952;BME280;62304;47.662;18.324;2023-12-14T02:34:38;99052.25;;;5.23;100.00
73952;BME280;62304;47.662;18.324;2023-12-14T02:37:41;99068.28;;;5.17;100.00
73952;BME280;62304;47.662;18.324;2023-12-14T02:40:45;99051.47;;;5.22;100.00
73952;BME280;62304;47.662;18.324;2023-12-14T02:43:48;99053.06;;;5.23;100.00
73952;BME280;62304;47.662;18.324;2023-12-14T02:46:51;99066.00;;;5.23;100.00
73952;BME280;62304;47.662;18.324;2023-12-14T02:49:54;99066.50;;;5.28;100.00
73952;BME280;62304;47.662;18.324;2023-12-14T02:52:59;99060.69;;;5.33;100.00
73952;BME280;62304;47.662;18.324;2023-12-14T02:56:02;99074.09;;;4.93;100.00
73952;BME280;62304;47.662;18.324;2023-12-14T02:59:06;99079.97;;;5.14;100.00
73952;BME280;62304;47.662;18.324;2023-12-14T03:02:09;99075.34;;;5.18;100.00
73952;BME280;62304;47.662;18.324;2023-12-14T03:05:14;99081.81;;;5.07;100.00
73952;BME280;62304;47.662;18.324;2023-12-14T03:08:20;99073.75;;;5.17;100.00
73952;BME280;62304;47.662;18.324;2023-12-14T03:11:24;99085.63;;;5.21;100.00
73952;BME280;62304;47.662;18.324;2023-12-14T03:14:32;99090.25;;;5.17;100.00
73952;BME280;62304;47.662;18.324;2023-12-14T03:17:35;99097.03;;;5.23;100.00
73952;BME280;62304;47.662;18.324;2023-12-14T03:20:39;99090.25;;;5.17;100.00
73952;BME280;62304;47.662;18.324;2023-12-14T03:23:42;99108.06;;;5.04;100.00
73952;BME280;62304;47.662;18.324;2023-12-14T03:26:45;99109.66;;;5.05;100.00
73952;BME280;62304;47.662;18.324;2023-12-14T03:29:48;99112.13;;;5.10;100.00
73952;BME280;62304;47.662;18.324;2023-12-14T03:32:51;99117.47;;;5.03;100.00
73952;BME280;62304;47.662;18.324;2023-12-14T03:35:55;99114.72;;;5.03;100.00
73952;BME280;62304;47.662;18.324;2023-12-14T03:38:59;99128.31;;;4.96;100.00
73952;BME280;62304;47.662;18.324;2023-12-14T03:42:02;99125.56;;;4.96;100.00
73952;BME280;62304;47.662;18.324;2023-12-14T03:45:06;99135.25;;;5.09;100.00
73952;BME280;62304;47.662;18.324;2023-12-14T03:48:09;99138.16;;;5.16;100.00
73952;BME280;62304;47.662;18.324;2023-12-14T03:51:13;99148.13;;;5.05;100.00
73952;BME280;62304;47.662;18.324;2023-12-14T03:54:16;99151.47;;;4.95;100.00
73952;BME280;62304;47.662;18.324;2023-12-14T03:57:19;99151.75;;;4.90;100.00
73952;BME280;62304;47.662;18.324;2023-12-14T04:00:22;99157.81;;;4.80;100.00
73952;BME280;62304;47.662;18.324;2023-12-14T04:03:26;99160.84;;;4.75;100.00
73952;BME280;62304;47.662;18.324;2023-12-14T04:06:29;99167.56;;;4.78;100.00
73952;BME280;62304;47.662;18.324;2023-12-14T04:09:33;99163.22;;;4.77;100.00
73952;BME280;62304;47.662;18.324;2023-12-14T04:12:37;99167.34;;;4.86;100.00
73952;BME280;62304;47.662;18.324;2023-12-14T04:15:41;99158.53;;;4.96;100.00
73952;BME280;62304;47.662;18.324;2023-12-14T04:18:44;99176.59;;;4.97;100.00
73952;BME280;62304;47.662;18.324;2023-12-14T04:21:49;99167.91;;;5.14;100.00
73952;BME280;62304;47.662;18.324;2023-12-14T04:24:54;99178.06;;;5.10;100.00
73952;BME280;62304;47.662;18.324;2023-12-14T04:27:58;99185.16;;;5.11;100.00
73952;BME280;62304;47.662;18.324;2023-12-14T04:31:00;99190.22;;;5.09;100.00
73952;BME280;62304;47.662;18.324;2023-12-14T04:34:05;99195.56;;;5.02;100.00
73952;BME280;62304;47.662;18.324;2023-12-14T04:37:15;99194.38;;;5.03;100.00
73952;BME280;62304;47.662;18.324;2023-12-14T04:40:18;99201.53;;;4.89;100.00
73952;BME280;62304;47.662;18.324;2023-12-14T04:43:21;99204.53;;;4.99;100.00
73952;BME280;62304;47.662;18.324;2023-12-14T04:46:25;99206.47;;;4.99;100.00
73952;BME280;62304;47.662;18.324;2023-12-14T04:49:28;99211.91;;;4.95;100.00
73952;BME280;62304;47.662;18.324;2023-12-14T04:52:32;99213.63;;;4.84;100.00
73952;BME280;62304;47.662;18.324;2023-12-14T04:55:36;99224.06;;;4.94;100.00
73952;BME280;62304;47.662;18.324;2023-12-14T04:58:40;99220.00;;;5.07;100.00
73952;BME280;62304;47.662;18.324;2023-12-14T05:01:43;99230.44;;;4.98;100.00
73952;BME280;62304;47.662;18.324;2023-12-14T05:04:48;99226.53;;;4.99;100.00
73952;BME280;62304;47.662;18.324;2023-12-14T05:07:51;99226.94;;;5.01;100.00
73952;BME280;62304;47.662;18.324;2023-12-14T05:10:55;99228.38;;;5.14;100.00
73952;BME280;62304;47.662;18.324;2023-12-14T05:13:58;99228.38;;;5.14;100.00
73952;BME280;62304;47.662;18.324;2023-12-14T05:17:01;99237.78;;;5.13;100.00
73952;BME280;62304;47.662;18.324;2023-12-14T05:20:08;99240.47;;;5.10;100.00
73952;BME280;62304;47.662;18.324;2023-12-14T05:23:14;99234.56;;;5.08;100.00
73952;BME280;62304;47.662;18.324;2023-12-14T05:26:17;99234.19;;;5.28;100.00
73952;BME280;62304;47.662;18.324;2023-12-14T05:29:22;99237.88;;;5.36;100.00
73952;BME280;62304;47.662;18.324;2023-12-14T05:32:26;99242.59;;;5.16;100.00
73952;BME280;62304;47.662;18.324;2023-12-14T05:35:30;99242.16;;;5.33;100.00
73952;BME280;62304;47.662;18.324;2023-12-14T05:38:34;99250.41;;;5.33;100.00
73952;BME280;62304;47.662;18.324;2023-12-14T05:41:41;99257.28;;;5.24;100.00
73952;BME280;62304;47.662;18.324;2023-12-14T05:44:44;99258.34;;;5.19;100.00
73952;BME280;62304;47.662;18.324;2023-12-14T05:47:49;99255.78;;;5.11;100.00
73952;BME280;62304;47.662;18.324;2023-12-14T05:50:54;99262.81;;;5.08;100.00
73952;BME280;62304;47.662;18.324;2023-12-14T05:53:57;99263.09;;;5.03;100.00
73952;BME280;62304;47.662;18.324;2023-12-14T05:57:00;99259.84;;;4.98;100.00
73952;BME280;62304;47.662;18.324;2023-12-14T06:00:05;99267.88;;;5.06;100.00
73952;BME280;62304;47.662;18.324;2023-12-14T06:03:10;99282.84;;;5.09;100.00
73952;BME280;62304;47.662;18.324;2023-12-14T06:06:13;99287.47;;;5.05;100.00
73952;BME280;62304;47.662;18.324;2023-12-14T06:09:18;99288.12;;;4.98;100.00
73952;BME280;62304;47.662;18.324;2023-12-14T06:12:24;99291.91;;;5.09;100.00
73952;BME280;62304;47.662;18.324;2023-12-14T06:15:28;99290.09;;;5.17;100.00
73952;BME280;62304;47.662;18.324;2023-12-14T06:18:31;99290.31;;;5.27;100.00
73952;BME280;62304;47.662;18.324;2023-12-14T06:21:35;99290.31;;;5.27;100.00
73952;BME280;62304;47.662;18.324;2023-12-14T06:24:37;99299.00;;;5.29;100.00
73952;BME280;62304;47.662;18.324;2023-12-14T06:27:41;99306.38;;;5.25;100.00
73952;BME280;62304;47.662;18.324;2023-12-14T06:30:45;99305.66;;;5.09;100.00
73952;BME280;62304;47.662;18.324;2023-12-14T06:33:49;99300.72;;;5.18;100.00
73952;BME280;62304;47.662;18.324;2023-12-14T06:36:52;99309.09;;;5.06;100.00
73952;BME280;62304;47.662;18.324;2023-12-14T06:39:55;99318.69;;;4.97;100.00
73952;BME280;62304;47.662;18.324;2023-12-14T06:42:58;99326.06;;;4.93;100.00
73952;BME280;62304;47.662;18.324;2023-12-14T06:46:02;99340.97;;;4.92;100.00
73952;BME280;62304;47.662;18.324;2023-12-14T06:49:04;99338.97;;;4.92;100.00
73952;BME280;62304;47.662;18.324;2023-12-14T06:52:09;99345.47;;;4.84;100.00
73952;BME280;62304;47.662;18.324;2023-12-14T06:55:13;99346.47;;;4.76;100.00
73952;BME280;62304;47.662;18.324;2023-12-14T06:58:18;99353.28;;;4.67;100.00
73952;BME280;62304;47.662;18.324;2023-12-14T07:01:21;99372.06;;;4.65;100.00
73952;BME280;62304;47.662;18.324;2023-12-14T07:04:24;99369.06;;;4.54;100.00
73952;BME280;62304;47.662;18.324;2023-12-14T07:07:27;99376.41;;;4.50;100.00
73952;BME280;62304;47.662;18.324;2023-12-14T07:10:31;99381.44;;;4.48;100.00
73952;BME280;62304;47.662;18.324;2023-12-14T07:13:35;99383.41;;;4.48;100.00
73952;BME280;62304;47.662;18.324;2023-12-14T07:16:39;99390.16;;;4.50;100.00
73952;BME280;62304;47.662;18.324;2023-12-14T07:19:42;99396.69;;;4.46;100.00
73952;BME280;62304;47.662;18.324;2023-12-14T07:22:45;99407.31;;;4.47;100.00
73952;BME280;62304;47.662;18.324;2023-12-14T07:25:48;99410.06;;;4.47;100.00
73952;BME280;62304;47.662;18.324;2023-12-14T07:28:53;99415.09;;;4.45;100.00
73952;BME280;62304;47.662;18.324;2023-12-14T07:31:56;99409.88;;;4.40;100.00
73952;BME280;62304;47.662;18.324;2023-12-14T07:35:00;99418.12;;;4.40;100.00
73952;BME280;62304;47.662;18.324;2023-12-14T07:38:03;99415.19;;;4.33;100.00
73952;BME280;62304;47.662;18.324;2023-12-14T07:41:06;99420.31;;;4.35;100.00
73952;BME280;62304;47.662;18.324;2023-12-14T07:44:09;99423.06;;;4.35;100.00
73952;BME280;62304;47.662;18.324;2023-12-14T07:47:13;99431.41;;;4.38;100.00
73952;BME280;62304;47.662;18.324;2023-12-14T07:50:17;99432.28;;;4.42;100.00
73952;BME280;62304;47.662;18.324;2023-12-14T07:53:20;99436.34;;;4.48;100.00
73952;BME280;62304;47.662;18.324;2023-12-14T07:56:23;99441.25;;;4.55;100.00
73952;BME280;62304;47.662;18.324;2023-12-14T07:59:30;99440.56;;;4.58;100.00
73952;BME280;62304;47.662;18.324;2023-12-14T08:02:33;99455.06;;;4.58;100.00
73952;BME280;62304;47.662;18.324;2023-12-14T08:05:37;99463.03;;;4.63;100.00
73952;BME280;62304;47.662;18.324;2023-12-14T08:08:40;99467.94;;;4.70;100.00
73952;BME280;62304;47.662;18.324;2023-12-14T08:11:43;99477.84;;;4.74;100.00
73952;BME280;62304;47.662;18.324;2023-12-14T08:14:46;99473.59;;;4.77;100.00
73952;BME280;62304;47.662;18.324;2023-12-14T08:17:50;99485.06;;;4.79;100.00
73952;BME280;62304;47.662;18.324;2023-12-14T08:20:53;99494.25;;;4.86;100.00
73952;BME280;62304;47.662;18.324;2023-12-14T08:23:58;99489.41;;;4.95;100.00
73952;BME280;62304;47.662;18.324;2023-12-14T08:27:02;99498.03;;;5.09;100.00
73952;BME280;62304;47.662;18.324;2023-12-14T08:30:06;99505.19;;;5.14;100.00
73952;BME280;62304;47.662;18.324;2023-12-14T08:33:10;99499.78;;;5.17;100.00
73952;BME280;62304;47.662;18.324;2023-12-14T08:36:17;99505.72;;;5.19;100.00
73952;BME280;62304;47.662;18.324;2023-12-14T08:39:20;99507.22;;;5.32;100.00
73952;BME280;62304;47.662;18.324;2023-12-14T08:42:23;99515.38;;;5.44;100.00
73952;BME280;62304;47.662;18.324;2023-12-14T08:45:29;99521.16;;;5.39;100.00
73952;BME280;62304;47.662;18.324;2023-12-14T08:48:33;99519.03;;;5.48;100.00
73952;BME280;62304;47.662;18.324;2023-12-14T08:51:36;99525.12;;;5.57;100.00
73952;BME280;62304;47.662;18.324;2023-12-14T08:54:39;99536.94;;;5.58;100.00
73952;BME280;62304;47.662;18.324;2023-12-14T08:57:46;99532.75;;;5.64;100.00
73952;BME280;62304;47.662;18.324;2023-12-14T09:00:49;99534.88;;;5.55;100.00
73952;BME280;62304;47.662;18.324;2023-12-14T09:03:56;99537.81;;;5.62;100.00
73952;BME280;62304;47.662;18.324;2023-12-14T09:06:59;99536.66;;;5.63;100.00
73952;BME280;62304;47.662;18.324;2023-12-14T09:10:02;99544.72;;;5.71;100.00
73952;BME280;62304;47.662;18.324;2023-12-14T09:13:06;99546.16;;;5.65;100.00
73952;BME280;62304;47.662;18.324;2023-12-14T09:16:09;99550.66;;;5.73;100.00
73952;BME280;62304;47.662;18.324;2023-12-14T09:19:13;99546.47;;;5.79;100.00
73952;BME280;62304;47.662;18.324;2023-12-14T09:22:16;99549.50;;;5.74;100.00
73952;BME280;62304;47.662;18.324;2023-12-14T09:25:20;99559.09;;;5.80;100.00
73952;BME280;62304;47.662;18.324;2023-12-14T09:28:23;99554.62;;;5.91;100.00
73952;BME280;62304;47.662;18.324;2023-12-14T09:31:27;99561.03;;;5.95;100.00
73952;BME280;62304;47.662;18.324;2023-12-14T09:34:30;99572.50;;;5.97;100.00
73952;BME280;62304;47.662;18.324;2023-12-14T09:37:33;99568.03;;;5.93;100.00
73952;BME280;62304;47.662;18.324;2023-12-14T09:40:36;99578.44;;;5.99;100.00
73952;BME280;62304;47.662;18.324;2023-12-14T09:43:40;99578.69;;;5.94;100.00
73952;BME280;62304;47.662;18.324;2023-12-14T09:46:43;99583.78;;;5.92;100.00
73952;BME280;62304;47.662;18.324;2023-12-14T09:49:52;99585.38;;;5.93;100.00
73952;BME280;62304;47.662;18.324;2023-12-14T09:52:55;99582.16;;;5.91;100.00
73952;BME280;62304;47.662;18.324;2023-12-14T09:55:59;99584.28;;;5.98;100.00
73952;BME280;62304;47.662;18.324;2023-12-14T09:59:02;99592.28;;;6.03;100.00
73952;BME280;62304;47.662;18.324;2023-12-14T10:02:11;99593.94;;;6.07;100.00
73952;BME280;62304;47.662;18.324;2023-12-14T10:05:15;99597.84;;;6.06;100.00
73952;BME280;62304;47.662;18.324;2023-12-14T10:08:18;99599.00;;;6.05;100.00
73952;BME280;62304;47.662;18.324;2023-12-14T10:11:23;99600.59;;;6.06;100.00
73952;BME280;62304;47.662;18.324;2023-12-14T10:14:26;99600.09;;;6.01;100.00
73952;BME280;62304;47.662;18.324;2023-12-14T10:17:29;99600.69;;;6.10;100.00
73952;BME280;62304;47.662;18.324;2023-12-14T10:20:35;99604.66;;;6.12;100.00
73952;BME280;62304;47.662;18.324;2023-12-14T10:23:45;99588.44;;;6.07;100.00
73952;BME280;62304;47.662;18.324;2023-12-14T10:26:50;99604.41;;;6.17;100.00
73952;BME280;62304;47.662;18.324;2023-12-14T10:29:55;99605.91;;;6.15;100.00
73952;BME280;62304;47.662;18.324;2023-12-14T10:32:59;99613.53;;;6.21;100.00
73952;BME280;62304;47.662;18.324;2023-12-14T10:36:03;99618.66;;;6.38;100.00
73952;BME280;62304;47.662;18.324;2023-12-14T10:39:06;99617.06;;;6.37;100.00
73952;BME280;62304;47.662;18.324;2023-12-14T10:42:13;99626.06;;;6.53;100.00
73952;BME280;62304;47.662;18.324;2023-12-14T10:45:26;99622.22;;;6.58;100.00
73952;BME280;62304;47.662;18.324;2023-12-14T10:48:32;99620.84;;;6.67;100.00
73952;BME280;62304;47.662;18.324;2023-12-14T10:51:35;99630.28;;;6.66;100.00
73952;BME280;62304;47.662;18.324;2023-12-14T10:54:41;99631.16;;;6.70;100.00
73952;BME280;62304;47.662;18.324;2023-12-14T10:57:45;99637.03;;;6.69;100.00
73952;BME280;62304;47.662;18.324;2023-12-14T11:01:00;99636.94;;;6.84;100.00
73952;BME280;62304;47.662;18.324;2023-12-14T11:04:06;99641.97;;;6.79;100.00
73952;BME280;62304;47.662;18.324;2023-12-14T11:07:16;99641.16;;;6.78;100.00
73952;BME280;62304;47.662;18.324;2023-12-14T11:10:43;99659.28;;;6.79;100.00
73952;BME280;62304;47.662;18.324;2023-12-14T11:13:52;99660.69;;;6.89;100.00
73952;BME280;62304;47.662;18.324;2023-12-14T11:16:56;99661.47;;;6.89;100.00
73952;BME280;62304;47.662;18.324;2023-12-14T11:20:24;99666.63;;;6.91;100.00
73952;BME280;62304;47.662;18.324;2023-12-14T11:26:33;99656.09;;;7.15;100.00
73952;BME280;62304;47.662;18.324;2023-12-14T11:29:37;99674.09;;;7.28;100.00
73952;BME280;62304;47.662;18.324;2023-12-14T11:32:40;99664.16;;;7.24;100.00
73952;BME280;62304;47.662;18.324;2023-12-14T11:35:43;99661.69;;;7.38;100.00
73952;BME280;62304;47.662;18.324;2023-12-14T11:38:48;99668.44;;;7.40;100.00
73952;BME280;62304;47.662;18.324;2023-12-14T11:42:01;99672.78;;;7.41;100.00
73952;BME280;62304;47.662;18.324;2023-12-14T11:45:05;99676.09;;;7.50;100.00
73952;BME280;62304;47.662;18.324;2023-12-14T11:48:11;99668.78;;;7.39;100.00
73952;BME280;62304;47.662;18.324;2023-12-14T11:51:15;99678.84;;;7.50;100.00
73952;BME280;62304;47.662;18.324;2023-12-14T11:54:19;99681.31;;;7.55;100.00
73952;BME280;62304;47.662;18.324;2023-12-14T11:57:28;99674.38;;;7.42;100.00
73952;BME280;62304;47.662;18.324;2023-12-14T12:00:32;99683.34;;;7.58;100.00
73952;BME280;62304;47.662;18.324;2023-12-14T12:03:36;99670.63;;;7.54;100.00
73952;BME280;62304;47.662;18.324;2023-12-14T12:06:39;99660.94;;;7.41;100.00
73952;BME280;62304;47.662;18.324;2023-12-14T12:09:44;99673.56;;;7.42;100.00
73952;BME280;62304;47.662;18.324;2023-12-14T12:12:47;99687.28;;;7.57;100.00
73952;BME280;62304;47.662;18.324;2023-12-14T12:15:50;99685.81;;;7.63;100.00
73952;BME280;62304;47.662;18.324;2023-12-14T12:18:53;99694.03;;;7.60;100.00
73952;BME280;62304;47.662;18.324;2023-12-14T12:21:57;99692.31;;;7.74;100.00
73952;BME280;62304;47.662;18.324;2023-12-14T12:25:00;99697.97;;;7.81;100.00
73952;BME280;62304;47.662;18.324;2023-12-14T12:28:16;99692.44;;;7.81;100.00
73952;BME280;62304;47.662;18.324;2023-12-14T12:31:19;99697.16;;;7.81;100.00
73952;BME280;62304;47.662;18.324;2023-12-14T12:34:23;99703.00;;;7.98;100.00
73952;BME280;62304;47.662;18.324;2023-12-14T12:37:26;99699.66;;;7.89;100.00
73952;BME280;62304;47.662;18.324;2023-12-14T12:40:30;99705.63;;;7.91;100.00
73952;BME280;62304;47.662;18.324;2023-12-14T12:43:34;99709.88;;;7.85;100.00
73952;BME280;62304;47.662;18.324;2023-12-14T12:46:38;99713.94;;;7.72;100.00
73952;BME280;62304;47.662;18.324;2023-12-14T12:49:43;99713.47;;;7.89;100.00
73952;BME280;62304;47.662;18.324;2023-12-14T12:52:47;99717.53;;;7.73;100.00
73952;BME280;62304;47.662;18.324;2023-12-14T12:55:52;99719.47;;;7.72;100.00
73952;BME280;62304;47.662;18.324;2023-12-14T12:58:56;99731.03;;;7.78;100.00
73952;BME280;62304;47.662;18.324;2023-12-14T13:01:59;99726.03;;;7.64;100.00
73952;BME280;62304;47.662;18.324;2023-12-14T13:05:06;99731.97;;;7.66;100.00
73952;BME280;62304;47.662;18.324;2023-12-14T13:08:11;99738.06;;;7.75;100.00
73952;BME280;62304;47.662;18.324;2023-12-14T13:11:15;99731.97;;;7.66;100.00
73952;BME280;62304;47.662;18.324;2023-12-14T13:14:18;99744.13;;;7.62;100.00
73952;BME280;62304;47.662;18.324;2023-12-14T13:17:21;99748.13;;;7.64;100.00
73952;BME280;62304;47.662;18.324;2023-12-14T13:20:25;99753.69;;;7.68;100.00
73952;BME280;62304;47.662;18.324;2023-12-14T13:23:28;99755.09;;;7.58;100.00
73952;BME280;62304;47.662;18.324;2023-12-14T13:26:33;99765.63;;;7.53;100.00
73952;BME280;62304;47.662;18.324;2023-12-14T13:29:37;99768.16;;;7.61;100.00
73952;BME280;62304;47.662;18.324;2023-12-14T13:32:40;99784.22;;;7.56;100.00
73952;BME280;62304;47.662;18.324;2023-12-14T13:35:44;99792.72;;;7.47;100.00
73952;BME280;62304;47.662;18.324;2023-12-14T13:38:50;99797.78;;;7.45;100.00
73952;BME280;62304;47.662;18.324;2023-12-14T13:41:53;99805.97;;;7.42;100.00
73952;BME280;62304;47.662;18.324;2023-12-14T13:44:56;99807.50;;;7.39;100.00
73952;BME280;62304;47.662;18.324;2023-12-14T13:48:00;99815.44;;;7.41;100.00
73952;BME280;62304;47.662;18.324;2023-12-14T13:51:04;99829.97;;;7.38;100.00
73952;BME280;62304;47.662;18.324;2023-12-14T13:54:07;99825.84;;;7.32;100.00
73952;BME280;62304;47.662;18.324;2023-12-14T13:57:11;99842.63;;;7.23;100.00
73952;BME280;62304;47.662;18.324;2023-12-14T14:00:15;99843.69;;;7.19;100.00
73952;BME280;62304;47.662;18.324;2023-12-14T14:03:19;99852.59;;;7.12;100.00
73952;BME280;62304;47.662;18.324;2023-12-14T14:06:22;99864.00;;;7.11;100.00
73952;BME280;62304;47.662;18.324;2023-12-14T14:09:26;99867.91;;;7.10;100.00
73952;BME280;62304;47.662;18.324;2023-12-14T14:12:29;99868.28;;;7.08;100.00
73952;BME280;62304;47.662;18.324;2023-12-14T14:15:33;99875.25;;;7.02;100.00
73952;BME280;62304;47.662;18.324;2023-12-14T14:18:36;99874.34;;;6.98;100.00
73952;BME280;62304;47.662;18.324;2023-12-14T14:21:39;99878.97;;;6.94;100.00
73952;BME280;62304;47.662;18.324;2023-12-14T14:24:42;99881.56;;;6.87;100.00
73952;BME280;62304;47.662;18.324;2023-12-14T14:27:45;99873.91;;;6.81;100.00
73952;BME280;62304;47.662;18.324;2023-12-14T14:30:50;99890.72;;;6.76;100.00
73952;BME280;62304;47.662;18.324;2023-12-14T14:33:54;99887.78;;;6.69;100.00
73952;BME280;62304;47.662;18.324;2023-12-14T14:36:56;99903.88;;;6.67;100.00
73952;BME280;62304;47.662;18.324;2023-12-14T14:40:00;99906.09;;;6.61;100.00
73952;BME280;62304;47.662;18.324;2023-12-14T14:43:02;99920.59;;;6.58;100.00
73952;BME280;62304;47.662;18.324;2023-12-14T14:46:06;99917.19;;;6.49;100.00
73952;BME280;62304;47.662;18.324;2023-12-14T14:49:09;99922.50;;;6.42;100.00
73952;BME280;62304;47.662;18.324;2023-12-14T14:52:12;99927.81;;;6.35;100.00
73952;BME280;62304;47.662;18.324;2023-12-14T14:55:15;99925.34;;;6.30;100.00
73952;BME280;62304;47.662;18.324;2023-12-14T14:58:18;99925.94;;;6.24;100.00
73952;BME280;62304;47.662;18.324;2023-12-14T15:01:22;99936.38;;;6.18;100.00
73952;BME280;62304;47.662;18.324;2023-12-14T15:04:25;99942.03;;;6.10;100.00
73952;BME280;62304;47.662;18.324;2023-12-14T15:07:28;99945.75;;;6.02;100.00
73952;BME280;62304;47.662;18.324;2023-12-14T15:10:34;99950.69;;;5.96;100.00
73952;BME280;62304;47.662;18.324;2023-12-14T15:13:37;99952.81;;;5.87;100.00
73952;BME280;62304;47.662;18.324;2023-12-14T15:16:41;99951.66;;;5.88;100.00
73952;BME280;62304;47.662;18.324;2023-12-14T15:19:44;99973.66;;;5.88;100.00
73952;BME280;62304;47.662;18.324;2023-12-14T15:22:49;99974.00;;;5.87;100.00
73952;BME280;62304;47.662;18.324;2023-12-14T15:25:52;99973.91;;;5.83;100.00
73952;BME280;62304;47.662;18.324;2023-12-14T15:28:58;99978.25;;;5.84;100.00
73952;BME280;62304;47.662;18.324;2023-12-14T15:32:01;99986.97;;;5.86;100.00
73952;BME280;62304;47.662;18.324;2023-12-14T15:35:06;99991.56;;;5.82;100.00
73952;BME280;62304;47.662;18.324;2023-12-14T15:38:09;99992.72;;;5.81;100.00
73952;BME280;62304;47.662;18.324;2023-12-14T15:41:13;100003.94;;;5.76;100.00
73952;BME280;62304;47.662;18.324;2023-12-14T15:44:16;100011.03;;;5.77;100.00
73952;BME280;62304;47.662;18.324;2023-12-14T15:47:20;100020.34;;;5.73;100.00
73952;BME280;62304;47.662;18.324;2023-12-14T15:50:23;100028.81;;;5.68;100.00
73952;BME280;62304;47.662;18.324;2023-12-14T15:53:26;100032.59;;;5.63;100.00
73952;BME280;62304;47.662;18.324;2023-12-14T15:56:29;100038.56;;;5.65;100.00
73952;BME280;62304;47.662;18.324;2023-12-14T15:59:37;100042.00;;;5.62;100.00
73952;BME280;62304;47.662;18.324;2023-12-14T16:02:41;100048.41;;;5.66;100.00
73952;BME280;62304;47.662;18.324;2023-12-14T16:05:44;100060.81;;;5.60;100.00
73952;BME280;62304;47.662;18.324;2023-12-14T16:08:47;100064.00;;;5.62;100.00